Country
Station

 

Weather  for  Agadir  -  Morocco    Morocco

  
12 °C (54 °F)
    
 
 

Current METAR for Agadir is :

GMAA 080915Z 15003KT 3000 BR SCT004 12/12 Q1026 B2+B3

 

This is a report for Agadir - Morocco.
 
The report was made 82 hours and 12 minutes ago, at 09:15 UTC .
The wind was blowing at a speed of 1.5 meters per second (3.5 miles per hour) from south/southeast (150°).
 
The temperature was 12 °C (54 °F), with a dew-point at 12 °C (54 °F).
The atmospheric pressure was 1026 hPa (30.30 inHg).
The relative humidity was 100.0%.
 
There were scattered clouds at a height of 122 meters (400 feet).
 
The overall visibility was 3000 meter (9843 feet).
 
Currently mist.

 
 
 
 

Country :   A   B   C   D   E   F   G   H   I   J   K   L   M   N   O   P   Q   R   S   T   U   V   W   Y   Z

 

Site Info  |  Disclaimer  |  Credits  |  Privacy
Contact us  |  Add to favorites
© 2013-2018 METARs - All rights reserved